sensor_id;sensor_type;location;lat;lon;timestamp;P1;durP1;ratioP1;P2;durP2;ratioP2
39454;SDS011;25155;41.890;23.446;2022-08-30T00:01:54;7.10;;;6.40;;
39454;SDS011;25155;41.890;23.446;2022-08-30T00:04:20;9.68;;;8.07;;
39454;SDS011;25155;41.890;23.446;2022-08-30T00:06:49;8.60;;;6.97;;
39454;SDS011;25155;41.890;23.446;2022-08-30T00:09:21;6.55;;;5.90;;
39454;SDS011;25155;41.890;23.446;2022-08-30T00:11:48;6.05;;;5.30;;
39454;SDS011;25155;41.890;23.446;2022-08-30T00:14:16;5.63;;;4.93;;
39454;SDS011;25155;41.890;23.446;2022-08-30T00:16:44;7.50;;;6.40;;
39454;SDS011;25155;41.890;23.446;2022-08-30T00:19:11;5.72;;;5.13;;
39454;SDS011;25155;41.890;23.446;2022-08-30T00:21:38;5.63;;;5.00;;
39454;SDS011;25155;41.890;23.446;2022-08-30T00:24:07;7.68;;;6.10;;
39454;SDS011;25155;41.890;23.446;2022-08-30T00:26:35;9.20;;;8.30;;
39454;SDS011;25155;41.890;23.446;2022-08-30T00:29:02;8.23;;;6.60;;
39454;SDS011;25155;41.890;23.446;2022-08-30T00:31:29;7.85;;;7.15;;
39454;SDS011;25155;41.890;23.446;2022-08-30T00:33:56;10.68;;;8.65;;
39454;SDS011;25155;41.890;23.446;2022-08-30T00:36:23;12.65;;;10.10;;
39454;SDS011;25155;41.890;23.446;2022-08-30T00:38:51;10.90;;;8.80;;
39454;SDS011;25155;41.890;23.446;2022-08-30T00:41:20;12.77;;;11.00;;
39454;SDS011;25155;41.890;23.446;2022-08-30T00:43:48;9.20;;;8.30;;
39454;SDS011;25155;41.890;23.446;2022-08-30T00:46:16;10.85;;;8.93;;
39454;SDS011;25155;41.890;23.446;2022-08-30T00:48:44;11.68;;;9.93;;
39454;SDS011;25155;41.890;23.446;2022-08-30T00:51:13;10.38;;;8.63;;
39454;SDS011;25155;41.890;23.446;2022-08-30T00:53:41;7.38;;;6.68;;
39454;SDS011;25155;41.890;23.446;2022-08-30T00:56:12;7.63;;;6.57;;
39454;SDS011;25155;41.890;23.446;2022-08-30T00:58:42;7.43;;;6.30;;
39454;SDS011;25155;41.890;23.446;2022-08-30T01:01:12;11.90;;;7.97;;
39454;SDS011;25155;41.890;23.446;2022-08-30T01:03:40;9.15;;;7.57;;
39454;SDS011;25155;41.890;23.446;2022-08-30T01:06:09;8.82;;;6.85;;
39454;SDS011;25155;41.890;23.446;2022-08-30T01:08:36;6.43;;;5.70;;
39454;SDS011;25155;41.890;23.446;2022-08-30T01:11:04;8.27;;;6.50;;
39454;SDS011;25155;41.890;23.446;2022-08-30T01:13:32;7.75;;;5.60;;
39454;SDS011;25155;41.890;23.446;2022-08-30T01:16:02;8.50;;;6.25;;
39454;SDS011;25155;41.890;23.446;2022-08-30T01:18:30;7.93;;;6.65;;
39454;SDS011;25155;41.890;23.446;2022-08-30T01:20:59;11.07;;;8.70;;
39454;SDS011;25155;41.890;23.446;2022-08-30T01:23:33;8.73;;;7.82;;
39454;SDS011;25155;41.890;23.446;2022-08-30T01:26:03;7.17;;;6.40;;
39454;SDS011;25155;41.890;23.446;2022-08-30T01:28:31;9.35;;;7.80;;
39454;SDS011;25155;41.890;23.446;2022-08-30T01:30:59;10.82;;;7.57;;
39454;SDS011;25155;41.890;23.446;2022-08-30T01:33:27;9.32;;;7.22;;
39454;SDS011;25155;41.890;23.446;2022-08-30T01:35:55;11.35;;;9.13;;
39454;SDS011;25155;41.890;23.446;2022-08-30T01:38:24;12.32;;;10.48;;
39454;SDS011;25155;41.890;23.446;2022-08-30T01:40:58;12.80;;;10.43;;
39454;SDS011;25155;41.890;23.446;2022-08-30T01:43:33;11.10;;;10.00;;
39454;SDS011;25155;41.890;23.446;2022-08-30T01:46:01;12.40;;;10.57;;
39454;SDS011;25155;41.890;23.446;2022-08-30T01:48:28;10.65;;;9.02;;
39454;SDS011;25155;41.890;23.446;2022-08-30T01:50:55;9.27;;;7.50;;
39454;SDS011;25155;41.890;23.446;2022-08-30T01:53:23;8.30;;;7.15;;
39454;SDS011;25155;41.890;23.446;2022-08-30T01:55:50;7.47;;;6.65;;
39454;SDS011;25155;41.890;23.446;2022-08-30T01:58:18;11.60;;;9.52;;
39454;SDS011;25155;41.890;23.446;2022-08-30T02:00:47;9.77;;;8.77;;
39454;SDS011;25155;41.890;23.446;2022-08-30T02:03:14;12.73;;;11.20;;
39454;SDS011;25155;41.890;23.446;2022-08-30T02:05:42;13.57;;;11.23;;
39454;SDS011;25155;41.890;23.446;2022-08-30T02:08:09;13.48;;;10.25;;
39454;SDS011;25155;41.890;23.446;2022-08-30T02:10:36;10.05;;;9.05;;
39454;SDS011;25155;41.890;23.446;2022-08-30T02:13:03;12.38;;;11.05;;
39454;SDS011;25155;41.890;23.446;2022-08-30T02:15:32;14.73;;;11.23;;
39454;SDS011;25155;41.890;23.446;2022-08-30T02:18:00;10.88;;;9.68;;
39454;SDS011;25155;41.890;23.446;2022-08-30T02:20:28;8.60;;;7.68;;
39454;SDS011;25155;41.890;23.446;2022-08-30T02:22:55;8.10;;;6.70;;
39454;SDS011;25155;41.890;23.446;2022-08-30T02:25:23;9.32;;;7.75;;
39454;SDS011;25155;41.890;23.446;2022-08-30T02:27:50;9.98;;;8.98;;
39454;SDS011;25155;41.890;23.446;2022-08-30T02:30:18;10.18;;;9.07;;
39454;SDS011;25155;41.890;23.446;2022-08-30T02:32:46;9.32;;;8.43;;
39454;SDS011;25155;41.890;23.446;2022-08-30T02:35:14;7.80;;;7.00;;
39454;SDS011;25155;41.890;23.446;2022-08-30T02:37:41;8.82;;;8.02;;
39454;SDS011;25155;41.890;23.446;2022-08-30T02:40:09;7.65;;;6.85;;
39454;SDS011;25155;41.890;23.446;2022-08-30T02:42:37;6.90;;;6.20;;
39454;SDS011;25155;41.890;23.446;2022-08-30T02:45:06;6.03;;;5.13;;
39454;SDS011;25155;41.890;23.446;2022-08-30T02:47:34;7.18;;;5.10;;
39454;SDS011;25155;41.890;23.446;2022-08-30T02:50:03;9.32;;;7.82;;
39454;SDS011;25155;41.890;23.446;2022-08-30T02:52:30;7.25;;;6.55;;
39454;SDS011;25155;41.890;23.446;2022-08-30T02:54:58;7.72;;;6.93;;
39454;SDS011;25155;41.890;23.446;2022-08-30T02:57:25;8.68;;;6.60;;
39454;SDS011;25155;41.890;23.446;2022-08-30T02:59:53;8.25;;;7.00;;
39454;SDS011;25155;41.890;23.446;2022-08-30T03:02:20;6.45;;;5.75;;
39454;SDS011;25155;41.890;23.446;2022-08-30T03:04:47;5.90;;;5.30;;
39454;SDS011;25155;41.890;23.446;2022-08-30T03:07:17;5.30;;;4.53;;
39454;SDS011;25155;41.890;23.446;2022-08-30T03:09:44;8.77;;;7.10;;
39454;SDS011;25155;41.890;23.446;2022-08-30T03:12:11;7.10;;;5.97;;
39454;SDS011;25155;41.890;23.446;2022-08-30T03:14:38;5.68;;;5.07;;
39454;SDS011;25155;41.890;23.446;2022-08-30T03:17:06;5.93;;;5.32;;
39454;SDS011;25155;41.890;23.446;2022-08-30T03:19:35;6.30;;;5.38;;
39454;SDS011;25155;41.890;23.446;2022-08-30T03:22:04;6.72;;;6.03;;
39454;SDS011;25155;41.890;23.446;2022-08-30T03:24:33;5.88;;;5.18;;
39454;SDS011;25155;41.890;23.446;2022-08-30T03:27:01;7.93;;;5.90;;
39454;SDS011;25155;41.890;23.446;2022-08-30T03:29:29;7.40;;;6.13;;
39454;SDS011;25155;41.890;23.446;2022-08-30T03:31:56;6.88;;;5.70;;
39454;SDS011;25155;41.890;23.446;2022-08-30T03:34:24;7.63;;;6.43;;
39454;SDS011;25155;41.890;23.446;2022-08-30T03:36:53;9.02;;;7.47;;
39454;SDS011;25155;41.890;23.446;2022-08-30T03:39:23;8.93;;;8.03;;
39454;SDS011;25155;41.890;23.446;2022-08-30T03:41:52;8.95;;;7.70;;
39454;SDS011;25155;41.890;23.446;2022-08-30T03:44:19;9.25;;;8.35;;
39454;SDS011;25155;41.890;23.446;2022-08-30T03:46:47;10.60;;;9.40;;
39454;SDS011;25155;41.890;23.446;2022-08-30T03:49:15;17.15;;;9.68;;
39454;SDS011;25155;41.890;23.446;2022-08-30T03:51:42;10.02;;;8.50;;
39454;SDS011;25155;41.890;23.446;2022-08-30T03:54:09;7.35;;;6.60;;
39454;SDS011;25155;41.890;23.446;2022-08-30T03:56:37;8.45;;;7.50;;
39454;SDS011;25155;41.890;23.446;2022-08-30T03:59:06;10.43;;;8.45;;
39454;SDS011;25155;41.890;23.446;2022-08-30T04:01:34;8.95;;;7.10;;
39454;SDS011;25155;41.890;23.446;2022-08-30T04:04:01;7.07;;;6.38;;
39454;SDS011;25155;41.890;23.446;2022-08-30T04:06:29;6.05;;;5.40;;
39454;SDS011;25155;41.890;23.446;2022-08-30T04:08:57;6.57;;;5.18;;
39454;SDS011;25155;41.890;23.446;2022-08-30T04:11:25;5.57;;;4.90;;
39454;SDS011;25155;41.890;23.446;2022-08-30T04:13:52;5.75;;;5.15;;
39454;SDS011;25155;41.890;23.446;2022-08-30T04:16:22;5.22;;;4.63;;
39454;SDS011;25155;41.890;23.446;2022-08-30T04:18:51;5.43;;;4.75;;
39454;SDS011;25155;41.890;23.446;2022-08-30T04:21:18;8.73;;;7.50;;
39454;SDS011;25155;41.890;23.446;2022-08-30T04:23:45;6.78;;;6.10;;
39454;SDS011;25155;41.890;23.446;2022-08-30T04:26:12;7.60;;;5.70;;
39454;SDS011;25155;41.890;23.446;2022-08-30T04:28:40;6.55;;;5.30;;
39454;SDS011;25155;41.890;23.446;2022-08-30T04:31:08;5.80;;;5.20;;
39454;SDS011;25155;41.890;23.446;2022-08-30T04:33:38;8.60;;;6.82;;
39454;SDS011;25155;41.890;23.446;2022-08-30T04:36:06;12.07;;;7.93;;
39454;SDS011;25155;41.890;23.446;2022-08-30T04:38:35;8.40;;;6.90;;
39454;SDS011;25155;41.890;23.446;2022-08-30T04:41:07;6.72;;;5.97;;
39454;SDS011;25155;41.890;23.446;2022-08-30T04:43:36;6.53;;;5.70;;
39454;SDS011;25155;41.890;23.446;2022-08-30T04:46:05;5.53;;;4.93;;
39454;SDS011;25155;41.890;23.446;2022-08-30T04:48:33;5.70;;;5.10;;
39454;SDS011;25155;41.890;23.446;2022-08-30T04:51:03;7.25;;;6.30;;
39454;SDS011;25155;41.890;23.446;2022-08-30T04:53:32;6.88;;;5.60;;
39454;SDS011;25155;41.890;23.446;2022-08-30T04:56:00;11.25;;;9.18;;
39454;SDS011;25155;41.890;23.446;2022-08-30T04:58:27;8.40;;;7.53;;
39454;SDS011;25155;41.890;23.446;2022-08-30T05:00:55;13.77;;;12.15;;
39454;SDS011;25155;41.890;23.446;2022-08-30T05:03:22;12.02;;;10.73;;
39454;SDS011;25155;41.890;23.446;2022-08-30T05:05:50;9.32;;;8.43;;
39454;SDS011;25155;41.890;23.446;2022-08-30T05:08:19;11.60;;;8.98;;
39454;SDS011;25155;41.890;23.446;2022-08-30T05:10:48;10.65;;;9.57;;
39454;SDS011;25155;41.890;23.446;2022-08-30T05:13:17;12.27;;;10.88;;
39454;SDS011;25155;41.890;23.446;2022-08-30T05:15:46;13.20;;;11.73;;
39454;SDS011;25155;41.890;23.446;2022-08-30T05:18:13;11.35;;;10.15;;
39454;SDS011;25155;41.890;23.446;2022-08-30T05:20:41;14.18;;;12.63;;
39454;SDS011;25155;41.890;23.446;2022-08-30T05:23:09;14.57;;;12.00;;
39454;SDS011;25155;41.890;23.446;2022-08-30T05:25:39;12.57;;;11.23;;
39454;SDS011;25155;41.890;23.446;2022-08-30T05:28:07;15.27;;;13.68;;
39454;SDS011;25155;41.890;23.446;2022-08-30T05:30:35;16.98;;;15.15;;
39454;SDS011;25155;41.890;23.446;2022-08-30T05:33:03;16.27;;;14.40;;
39454;SDS011;25155;41.890;23.446;2022-08-30T05:35:31;16.10;;;13.65;;
39454;SDS011;25155;41.890;23.446;2022-08-30T05:37:58;13.55;;;12.15;;
39454;SDS011;25155;41.890;23.446;2022-08-30T05:40:25;19.60;;;16.63;;
39454;SDS011;25155;41.890;23.446;2022-08-30T05:42:54;16.38;;;14.68;;
39454;SDS011;25155;41.890;23.446;2022-08-30T05:45:21;13.45;;;12.13;;
39454;SDS011;25155;41.890;23.446;2022-08-30T05:47:49;14.93;;;13.32;;
39454;SDS011;25155;41.890;23.446;2022-08-30T05:50:16;13.95;;;12.50;;
39454;SDS011;25155;41.890;23.446;2022-08-30T05:52:44;12.48;;;11.27;;
39454;SDS011;25155;41.890;23.446;2022-08-30T05:55:11;12.80;;;10.88;;
39454;SDS011;25155;41.890;23.446;2022-08-30T05:57:39;16.48;;;14.88;;
39454;SDS011;25155;41.890;23.446;2022-08-30T06:00:09;18.13;;;16.30;;
39454;SDS011;25155;41.890;23.446;2022-08-30T06:02:41;16.25;;;14.55;;
39454;SDS011;25155;41.890;23.446;2022-08-30T06:05:10;16.73;;;15.23;;
39454;SDS011;25155;41.890;23.446;2022-08-30T06:07:38;18.70;;;16.45;;
39454;SDS011;25155;41.890;23.446;2022-08-30T06:10:05;17.67;;;15.75;;
39454;SDS011;25155;41.890;23.446;2022-08-30T06:12:33;16.08;;;13.60;;
39454;SDS011;25155;41.890;23.446;2022-08-30T06:15:00;12.75;;;11.45;;
39454;SDS011;25155;41.890;23.446;2022-08-30T06:17:29;12.57;;;11.27;;
39454;SDS011;25155;41.890;23.446;2022-08-30T06:19:56;13.50;;;12.10;;
39454;SDS011;25155;41.890;23.446;2022-08-30T06:22:25;12.85;;;11.00;;
39454;SDS011;25155;41.890;23.446;2022-08-30T06:24:52;15.70;;;14.07;;
39454;SDS011;25155;41.890;23.446;2022-08-30T06:27:20;15.75;;;14.05;;
39454;SDS011;25155;41.890;23.446;2022-08-30T06:29:49;13.98;;;12.57;;
39454;SDS011;25155;41.890;23.446;2022-08-30T06:32:16;14.13;;;12.73;;
39454;SDS011;25155;41.890;23.446;2022-08-30T06:34:45;12.88;;;11.43;;
39454;SDS011;25155;41.890;23.446;2022-08-30T06:37:13;13.75;;;12.35;;
39454;SDS011;25155;41.890;23.446;2022-08-30T06:39:40;9.95;;;8.95;;
39454;SDS011;25155;41.890;23.446;2022-08-30T06:42:08;12.82;;;11.52;;
39454;SDS011;25155;41.890;23.446;2022-08-30T06:44:35;14.85;;;13.32;;
39454;SDS011;25155;41.890;23.446;2022-08-30T06:47:03;18.25;;;16.55;;
39454;SDS011;25155;41.890;23.446;2022-08-30T06:49:30;19.83;;;16.42;;
39454;SDS011;25155;41.890;23.446;2022-08-30T06:51:59;18.88;;;17.15;;
39454;SDS011;25155;41.890;23.446;2022-08-30T06:54:26;26.77;;;23.90;;
39454;SDS011;25155;41.890;23.446;2022-08-30T06:56:54;24.73;;;22.17;;
39454;SDS011;25155;41.890;23.446;2022-08-30T06:59:21;25.90;;;23.25;;
39454;SDS011;25155;41.890;23.446;2022-08-30T07:01:48;25.10;;;22.38;;
39454;SDS011;25155;41.890;23.446;2022-08-30T07:04:16;28.00;;;23.20;;
39454;SDS011;25155;41.890;23.446;2022-08-30T07:06:43;20.25;;;18.15;;
39454;SDS011;25155;41.890;23.446;2022-08-30T07:09:13;21.48;;;19.35;;
39454;SDS011;25155;41.890;23.446;2022-08-30T07:11:40;23.65;;;19.02;;
39454;SDS011;25155;41.890;23.446;2022-08-30T07:14:07;15.07;;;13.45;;
39454;SDS011;25155;41.890;23.446;2022-08-30T07:16:35;23.08;;;18.00;;
39454;SDS011;25155;41.890;23.446;2022-08-30T07:19:04;18.20;;;16.40;;
39454;SDS011;25155;41.890;23.446;2022-08-30T07:21:32;21.33;;;19.23;;
39454;SDS011;25155;41.890;23.446;2022-08-30T07:24:01;21.63;;;18.17;;
39454;SDS011;25155;41.890;23.446;2022-08-30T07:26:31;25.40;;;19.33;;
39454;SDS011;25155;41.890;23.446;2022-08-30T07:29:01;16.20;;;13.15;;
39454;SDS011;25155;41.890;23.446;2022-08-30T07:31:29;16.15;;;14.43;;
39454;SDS011;25155;41.890;23.446;2022-08-30T07:33:57;19.17;;;14.80;;
39454;SDS011;25155;41.890;23.446;2022-08-30T07:36:25;16.23;;;14.43;;
39454;SDS011;25155;41.890;23.446;2022-08-30T07:38:54;13.52;;;11.95;;
39454;SDS011;25155;41.890;23.446;2022-08-30T07:41:24;12.90;;;11.60;;
39454;SDS011;25155;41.890;23.446;2022-08-30T07:43:54;25.23;;;14.77;;
39454;SDS011;25155;41.890;23.446;2022-08-30T07:46:22;14.27;;;12.77;;
39454;SDS011;25155;41.890;23.446;2022-08-30T07:48:51;10.90;;;9.82;;
39454;SDS011;25155;41.890;23.446;2022-08-30T07:51:21;13.90;;;10.73;;
39454;SDS011;25155;41.890;23.446;2022-08-30T07:53:50;12.27;;;10.13;;
39454;SDS011;25155;41.890;23.446;2022-08-30T07:56:18;13.75;;;9.18;;
39454;SDS011;25155;41.890;23.446;2022-08-30T07:58:46;13.02;;;8.93;;
39454;SDS011;25155;41.890;23.446;2022-08-30T08:01:15;14.65;;;8.57;;
39454;SDS011;25155;41.890;23.446;2022-08-30T08:03:44;12.30;;;8.60;;
39454;SDS011;25155;41.890;23.446;2022-08-30T08:06:15;10.82;;;8.25;;
39454;SDS011;25155;41.890;23.446;2022-08-30T08:08:44;13.40;;;8.77;;
39454;SDS011;25155;41.890;23.446;2022-08-30T08:11:13;10.30;;;7.82;;
39454;SDS011;25155;41.890;23.446;2022-08-30T08:13:41;14.77;;;8.05;;
39454;SDS011;25155;41.890;23.446;2022-08-30T08:16:10;11.02;;;6.80;;
39454;SDS011;25155;41.890;23.446;2022-08-30T08:18:39;12.63;;;8.07;;
39454;SDS011;25155;41.890;23.446;2022-08-30T08:21:07;15.70;;;8.13;;
39454;SDS011;25155;41.890;23.446;2022-08-30T08:23:39;12.60;;;7.60;;
39454;SDS011;25155;41.890;23.446;2022-08-30T08:26:06;30.90;;;13.80;;
39454;SDS011;25155;41.890;23.446;2022-08-30T08:28:33;10.40;;;6.65;;
39454;SDS011;25155;41.890;23.446;2022-08-30T08:31:01;6.97;;;5.53;;
39454;SDS011;25155;41.890;23.446;2022-08-30T08:33:29;10.85;;;6.68;;
39454;SDS011;25155;41.890;23.446;2022-08-30T08:35:58;11.52;;;6.85;;
39454;SDS011;25155;41.890;23.446;2022-08-30T08:38:25;12.23;;;7.25;;
39454;SDS011;25155;41.890;23.446;2022-08-30T08:40:55;10.10;;;6.00;;
39454;SDS011;25155;41.890;23.446;2022-08-30T08:43:28;13.23;;;6.60;;
39454;SDS011;25155;41.890;23.446;2022-08-30T08:46:03;11.70;;;6.90;;
39454;SDS011;25155;41.890;23.446;2022-08-30T08:48:39;14.32;;;7.05;;
39454;SDS011;25155;41.890;23.446;2022-08-30T08:51:13;10.90;;;6.65;;
39454;SDS011;25155;41.890;23.446;2022-08-30T08:54:00;9.68;;;6.05;;
39454;SDS011;25155;41.890;23.446;2022-08-30T08:56:32;13.98;;;6.68;;
39454;SDS011;25155;41.890;23.446;2022-08-30T08:59:00;14.05;;;6.40;;
39454;SDS011;25155;41.890;23.446;2022-08-30T09:01:29;13.05;;;6.70;;
39454;SDS011;25155;41.890;23.446;2022-08-30T09:03:58;13.10;;;5.85;;
39454;SDS011;25155;41.890;23.446;2022-08-30T09:06:37;13.27;;;7.28;;
39454;SDS011;25155;41.890;23.446;2022-08-30T09:09:11;12.85;;;6.53;;
39454;SDS011;25155;41.890;23.446;2022-08-30T09:11:39;9.15;;;5.93;;
39454;SDS011;25155;41.890;23.446;2022-08-30T09:14:09;5.55;;;4.50;;
39454;SDS011;25155;41.890;23.446;2022-08-30T09:16:55;9.02;;;6.15;;
39454;SDS011;25155;41.890;23.446;2022-08-30T09:19:29;10.20;;;6.07;;
39454;SDS011;25155;41.890;23.446;2022-08-30T09:22:13;11.23;;;6.13;;
39454;SDS011;25155;41.890;23.446;2022-08-30T09:24:47;14.40;;;6.68;;
39454;SDS011;25155;41.890;23.446;2022-08-30T09:27:26;11.13;;;6.13;;
39454;SDS011;25155;41.890;23.446;2022-08-30T09:29:58;13.23;;;6.13;;
39454;SDS011;25155;41.890;23.446;2022-08-30T09:32:34;13.43;;;6.85;;
39454;SDS011;25155;41.890;23.446;2022-08-30T09:35:05;10.27;;;5.45;;
39454;SDS011;25155;41.890;23.446;2022-08-30T09:37:38;11.98;;;6.15;;
39454;SDS011;25155;41.890;23.446;2022-08-30T09:40:19;12.05;;;5.88;;
39454;SDS011;25155;41.890;23.446;2022-08-30T09:43:06;12.85;;;6.03;;
39454;SDS011;25155;41.890;23.446;2022-08-30T09:45:36;12.05;;;6.15;;
39454;SDS011;25155;41.890;23.446;2022-08-30T09:48:22;9.68;;;5.72;;
39454;SDS011;25155;41.890;23.446;2022-08-30T09:51:01;8.77;;;6.13;;
39454;SDS011;25155;41.890;23.446;2022-08-30T09:53:47;9.25;;;5.90;;
39454;SDS011;25155;41.890;23.446;2022-08-30T09:56:22;10.00;;;5.70;;
39454;SDS011;25155;41.890;23.446;2022-08-30T09:58:58;9.15;;;5.85;;
39454;SDS011;25155;41.890;23.446;2022-08-30T10:01:35;12.32;;;6.55;;
39454;SDS011;25155;41.890;23.446;2022-08-30T10:04:07;10.45;;;5.90;;
39454;SDS011;25155;41.890;23.446;2022-08-30T10:06:46;9.70;;;6.40;;
39454;SDS011;25155;41.890;23.446;2022-08-30T10:09:22;10.30;;;6.60;;
39454;SDS011;25155;41.890;23.446;2022-08-30T10:11:57;8.90;;;5.65;;
39454;SDS011;25155;41.890;23.446;2022-08-30T10:17:37;12.80;;;7.03;;
39454;SDS011;25155;41.890;23.446;2022-08-30T10:20:17;14.70;;;6.88;;
39454;SDS011;25155;41.890;23.446;2022-08-30T10:22:49;9.00;;;5.60;;
39454;SDS011;25155;41.890;23.446;2022-08-30T10:25:25;8.77;;;5.75;;
39454;SDS011;25155;41.890;23.446;2022-08-30T10:27:57;5.72;;;4.55;;
39454;SDS011;25155;41.890;23.446;2022-08-30T10:30:31;11.65;;;6.22;;
39454;SDS011;25155;41.890;23.446;2022-08-30T10:33:04;7.03;;;5.07;;
39454;SDS011;25155;41.890;23.446;2022-08-30T10:35:35;9.48;;;5.38;;
39454;SDS011;25155;41.890;23.446;2022-08-30T10:38:10;7.35;;;4.40;;
39454;SDS011;25155;41.890;23.446;2022-08-30T10:40:47;10.93;;;6.03;;
39454;SDS011;25155;41.890;23.446;2022-08-30T10:43:46;6.40;;;4.55;;
39454;SDS011;25155;41.890;23.446;2022-08-30T10:46:21;5.13;;;3.60;;
39454;SDS011;25155;41.890;23.446;2022-08-30T10:48:55;8.75;;;4.47;;
39454;SDS011;25155;41.890;23.446;2022-08-30T10:51:29;5.55;;;3.65;;
39454;SDS011;25155;41.890;23.446;2022-08-30T10:54:09;7.25;;;4.10;;
39454;SDS011;25155;41.890;23.446;2022-08-30T10:56:43;6.97;;;5.00;;
39454;SDS011;25155;41.890;23.446;2022-08-30T10:59:14;5.90;;;3.60;;
39454;SDS011;25155;41.890;23.446;2022-08-30T11:01:49;7.10;;;4.00;;
39454;SDS011;25155;41.890;23.446;2022-08-30T11:04:42;8.65;;;5.40;;
39454;SDS011;25155;41.890;23.446;2022-08-30T11:07:32;8.55;;;5.05;;
39454;SDS011;25155;41.890;23.446;2022-08-30T11:10:09;8.93;;;4.97;;
39454;SDS011;25155;41.890;23.446;2022-08-30T11:12:53;8.00;;;4.55;;
39454;SDS011;25155;41.890;23.446;2022-08-30T11:15:26;8.80;;;4.63;;
39454;SDS011;25155;41.890;23.446;2022-08-30T11:17:57;5.95;;;4.07;;
39454;SDS011;25155;41.890;23.446;2022-08-30T11:20:29;6.07;;;4.10;;
39454;SDS011;25155;41.890;23.446;2022-08-30T11:23:12;8.68;;;4.97;;
39454;SDS011;25155;41.890;23.446;2022-08-30T11:25:52;6.68;;;3.95;;
39454;SDS011;25155;41.890;23.446;2022-08-30T11:31:31;11.48;;;5.63;;
39454;SDS011;25155;41.890;23.446;2022-08-30T11:34:03;11.75;;;5.63;;
39454;SDS011;25155;41.890;23.446;2022-08-30T11:36:59;12.93;;;6.25;;
39454;SDS011;25155;41.890;23.446;2022-08-30T11:42:29;13.30;;;6.45;;
39454;SDS011;25155;41.890;23.446;2022-08-30T11:48:05;14.13;;;6.70;;
39454;SDS011;25155;41.890;23.446;2022-08-30T11:50:38;11.63;;;6.10;;
39454;SDS011;25155;41.890;23.446;2022-08-30T11:53:16;14.20;;;6.40;;
39454;SDS011;25155;41.890;23.446;2022-08-30T11:55:54;10.75;;;5.93;;
39454;SDS011;25155;41.890;23.446;2022-08-30T11:58:30;11.52;;;6.50;;
39454;SDS011;25155;41.890;23.446;2022-08-30T12:01:14;11.82;;;6.53;;
39454;SDS011;25155;41.890;23.446;2022-08-30T12:04:00;11.10;;;5.53;;
39454;SDS011;25155;41.890;23.446;2022-08-30T12:06:45;10.18;;;5.85;;
39454;SDS011;25155;41.890;23.446;2022-08-30T12:15:21;9.40;;;5.05;;
39454;SDS011;25155;41.890;23.446;2022-08-30T12:18:14;9.90;;;5.32;;
39454;SDS011;25155;41.890;23.446;2022-08-30T12:20:56;15.07;;;4.97;;
39454;SDS011;25155;41.890;23.446;2022-08-30T12:23:32;9.82;;;5.53;;
39454;SDS011;25155;41.890;23.446;2022-08-30T12:26:14;10.52;;;5.35;;
39454;SDS011;25155;41.890;23.446;2022-08-30T12:29:13;6.93;;;5.10;;
39454;SDS011;25155;41.890;23.446;2022-08-30T12:31:44;10.60;;;5.45;;
39454;SDS011;25155;41.890;23.446;2022-08-30T12:34:18;8.65;;;4.88;;
39454;SDS011;25155;41.890;23.446;2022-08-30T12:36:53;11.48;;;5.70;;
39454;SDS011;25155;41.890;23.446;2022-08-30T12:39:25;9.95;;;5.60;;
39454;SDS011;25155;41.890;23.446;2022-08-30T12:41:54;14.10;;;5.47;;
39454;SDS011;25155;41.890;23.446;2022-08-30T12:44:24;8.60;;;5.50;;
39454;SDS011;25155;41.890;23.446;2022-08-30T12:49:25;9.25;;;5.90;;
39454;SDS011;25155;41.890;23.446;2022-08-30T12:54:47;11.17;;;6.80;;
39454;SDS011;25155;41.890;23.446;2022-08-30T12:57:22;12.48;;;6.75;;
39454;SDS011;25155;41.890;23.446;2022-08-30T13:00:02;8.88;;;6.25;;
39454;SDS011;25155;41.890;23.446;2022-08-30T13:02:42;8.32;;;5.65;;
39454;SDS011;25155;41.890;23.446;2022-08-30T13:05:31;8.98;;;5.75;;
39454;SDS011;25155;41.890;23.446;2022-08-30T13:08:12;9.85;;;5.45;;
39454;SDS011;25155;41.890;23.446;2022-08-30T13:10:56;10.52;;;5.53;;
39454;SDS011;25155;41.890;23.446;2022-08-30T13:13:27;9.35;;;5.15;;
39454;SDS011;25155;41.890;23.446;2022-08-30T13:16:08;7.22;;;4.85;;
39454;SDS011;25155;41.890;23.446;2022-08-30T13:18:51;11.07;;;5.28;;
39454;SDS011;25155;41.890;23.446;2022-08-30T13:21:22;8.85;;;6.20;;
39454;SDS011;25155;41.890;23.446;2022-08-30T13:23:55;9.63;;;5.25;;
39454;SDS011;25155;41.890;23.446;2022-08-30T13:26:24;7.53;;;4.82;;
39454;SDS011;25155;41.890;23.446;2022-08-30T13:28:54;8.00;;;6.22;;
39454;SDS011;25155;41.890;23.446;2022-08-30T13:31:22;10.00;;;5.70;;
39454;SDS011;25155;41.890;23.446;2022-08-30T13:33:51;8.15;;;5.10;;
39454;SDS011;25155;41.890;23.446;2022-08-30T13:36:19;6.25;;;4.45;;
39454;SDS011;25155;41.890;23.446;2022-08-30T13:38:48;7.97;;;5.07;;
39454;SDS011;25155;41.890;23.446;2022-08-30T13:41:17;9.00;;;5.00;;
39454;SDS011;25155;41.890;23.446;2022-08-30T14:05:17;5.20;;;3.10;;
39454;SDS011;25155;41.890;23.446;2022-08-30T14:07:45;8.50;;;4.60;;
39454;SDS011;25155;41.890;23.446;2022-08-30T14:10:12;9.18;;;5.40;;
39454;SDS011;25155;41.890;23.446;2022-08-30T14:12:41;7.68;;;4.07;;
39454;SDS011;25155;41.890;23.446;2022-08-30T14:15:09;5.85;;;4.00;;
39454;SDS011;25155;41.890;23.446;2022-08-30T14:17:37;6.18;;;3.45;;
39454;SDS011;25155;41.890;23.446;2022-08-30T14:20:05;6.22;;;4.53;;
39454;SDS011;25155;41.890;23.446;2022-08-30T14:22:35;7.57;;;4.07;;
39454;SDS011;25155;41.890;23.446;2022-08-30T14:25:03;8.32;;;4.80;;
39454;SDS011;25155;41.890;23.446;2022-08-30T14:27:31;7.60;;;4.82;;
39454;SDS011;25155;41.890;23.446;2022-08-30T14:29:59;8.63;;;5.47;;
39454;SDS011;25155;41.890;23.446;2022-08-30T14:32:27;7.82;;;4.90;;
39454;SDS011;25155;41.890;23.446;2022-08-30T14:34:54;6.40;;;4.10;;
39454;SDS011;25155;41.890;23.446;2022-08-30T14:37:21;6.72;;;4.70;;
39454;SDS011;25155;41.890;23.446;2022-08-30T14:39:51;4.97;;;4.35;;
39454;SDS011;25155;41.890;23.446;2022-08-30T14:42:18;5.90;;;4.18;;
39454;SDS011;25155;41.890;23.446;2022-08-30T14:44:45;5.32;;;4.22;;
39454;SDS011;25155;41.890;23.446;2022-08-30T14:47:13;6.80;;;4.75;;
39454;SDS011;25155;41.890;23.446;2022-08-30T14:49:40;5.28;;;4.00;;
39454;SDS011;25155;41.890;23.446;2022-08-30T14:52:08;9.68;;;5.38;;
39454;SDS011;25155;41.890;23.446;2022-08-30T14:54:35;6.03;;;4.40;;
39454;SDS011;25155;41.890;23.446;2022-08-30T14:57:04;6.85;;;4.57;;
39454;SDS011;25155;41.890;23.446;2022-08-30T14:59:32;6.38;;;4.53;;
39454;SDS011;25155;41.890;23.446;2022-08-30T15:01:59;7.07;;;4.30;;
39454;SDS011;25155;41.890;23.446;2022-08-30T15:04:27;7.05;;;4.03;;
39454;SDS011;25155;41.890;23.446;2022-08-30T15:06:55;5.65;;;4.75;;
39454;SDS011;25155;41.890;23.446;2022-08-30T15:09:23;5.25;;;4.53;;
39454;SDS011;25155;41.890;23.446;2022-08-30T15:11:51;6.07;;;4.38;;
39454;SDS011;25155;41.890;23.446;2022-08-30T15:14:22;7.30;;;4.40;;
39454;SDS011;25155;41.890;23.446;2022-08-30T15:16:50;4.53;;;3.30;;
39454;SDS011;25155;41.890;23.446;2022-08-30T15:19:20;5.80;;;3.90;;
39454;SDS011;25155;41.890;23.446;2022-08-30T15:21:48;5.20;;;3.85;;
39454;SDS011;25155;41.890;23.446;2022-08-30T15:24:16;6.30;;;4.53;;
39454;SDS011;25155;41.890;23.446;2022-08-30T15:26:45;6.00;;;4.13;;
39454;SDS011;25155;41.890;23.446;2022-08-30T15:29:13;4.78;;;3.63;;
39454;SDS011;25155;41.890;23.446;2022-08-30T15:31:44;4.28;;;3.38;;